CYCD

Nanaimo Airport

Nanaimo, , Canada
METAR CYCD 220400Z 13002KT 6SM -SHRA BR BKN005 OVC012 14/13 A2978 RMK SF6SC2 TCU EMBDD LAST STFD OBS/NEXT 221300Z SLP085 DENSITY ALT 200FT
Observed Flight Rules
Sep-22 @ 04:00 UTC (3 hours ago) Instrument Flight Rules
Wind Visibility Clouds Conditions
130° at 2 knots 6 miles
Temperatures Readings
Current 14°C / 57°F
Dewpoint 13°C / 55°F
Humidity 94%
Altimeter 29.78" Hg
Pressure 1008.5 hPa
Elevation 30
METAR CYCD 220400Z 13002KT 6SM -SHRA BR BKN005 OVC012 14/13 A2978 RMK SF6SC2 TCU EMBDD LAST STFD OBS/NEXT 221300Z SLP085 DENSITY ALT 200FT
Observed Flight Rules
Sep-22 @ 04:00 UTC
(3 hours ago)
IFR
Wind Visibility
130° at 2 knots 6 miles
Clouds
Conditions
Temperature Dewpoint
14°C / 57°F 13°C / 55°F
Humidity Altimeter Pressure
94% 29.78" Hg 1008.5 hPa